createdAt,value
2019-03-31T00:02:28.424Z,99676.59
2019-03-31T00:05:32.163Z,99671.53
2019-03-31T00:08:35.884Z,99665.52
2019-03-31T00:11:39.515Z,99664.83
2019-03-31T00:14:43.367Z,99659.94
2019-03-31T00:17:46.992Z,99657.11
2019-03-31T00:20:50.756Z,99653.48
2019-03-31T00:23:54.484Z,99653.94
2019-03-31T00:26:58.096Z,99654.91
2019-03-31T00:30:01.764Z,99653.59
2019-03-31T00:33:05.507Z,99651.47
2019-03-31T00:36:09.186Z,99641.87
2019-03-31T00:39:12.915Z,99643.89
2019-03-31T00:42:16.605Z,99641.31
2019-03-31T00:45:20.278Z,99634.86
2019-03-31T00:48:24.434Z,99635.83
2019-03-31T00:51:28.344Z,99636.42
2019-03-31T00:54:32.072Z,99630.58
2019-03-31T00:57:35.658Z,99626.27
2019-03-31T01:00:46.825Z,99636.02
2019-03-31T01:03:50.647Z,99641.38
2019-03-31T01:06:54.587Z,99632.08
2019-03-31T01:09:58.598Z,99632.94
2019-03-31T01:13:02.376Z,99635.32
2019-03-31T01:16:07.106Z,99634.81
2019-03-31T01:19:11.185Z,99629.34
2019-03-31T01:22:14.858Z,99628.17
2019-03-31T01:25:18.897Z,99630.55
2019-03-31T01:28:22.759Z,99628.72
2019-03-31T01:31:28.319Z,99627.92
2019-03-31T01:34:32.081Z,99629.23
2019-03-31T01:37:35.796Z,99628.84
2019-03-31T01:40:39.433Z,99628.62
2019-03-31T01:43:43.171Z,99623.25
2019-03-31T01:46:46.978Z,99626.28
2019-03-31T01:49:50.638Z,99630.13
2019-03-31T01:52:54.336Z,99625.88
2019-03-31T01:55:57.940Z,99621.64
2019-03-31T01:59:01.675Z,99610.27
2019-03-31T02:02:05.518Z,99611.38
2019-03-31T02:05:09.254Z,99610.58
2019-03-31T02:08:12.951Z,99608.81
2019-03-31T02:11:16.614Z,99607.44
2019-03-31T02:14:20.287Z,99606.23
2019-03-31T02:17:24.254Z,99608.98
2019-03-31T02:20:27.903Z,99605.55
2019-03-31T02:23:31.542Z,99612.52
2019-03-31T02:26:35.194Z,99598.98
2019-03-31T02:29:38.902Z,99599.38
2019-03-31T02:32:42.722Z,99595.95
2019-03-31T02:35:46.389Z,99598.72
2019-03-31T02:38:50.041Z,99607.06
2019-03-31T02:41:53.641Z,99603.23
2019-03-31T02:44:57.470Z,99594.48
2019-03-31T02:48:01.201Z,99592.37
2019-03-31T02:51:04.808Z,99598.02
2019-03-31T02:54:08.459Z,99591.56
2019-03-31T02:57:12.381Z,99599.05
2019-03-31T03:00:16.044Z,99601.67
2019-03-31T03:03:19.967Z,99592.11
2019-03-31T03:06:23.646Z,99590.80
2019-03-31T03:09:27.303Z,99589.59
2019-03-31T03:12:30.960Z,99590.50
2019-03-31T03:15:40.322Z,99588.84
2019-03-31T03:18:43.943Z,99591.98
2019-03-31T03:21:47.554Z,99587.72
2019-03-31T03:24:51.345Z,99595.77
2019-03-31T03:27:54.994Z,99591.48
2019-03-31T03:30:58.768Z,99588.70
2019-03-31T03:34:02.624Z,99584.45
2019-03-31T03:37:06.345Z,99597.02
2019-03-31T03:40:09.998Z,99588.80
2019-03-31T03:43:13.698Z,99601.41
2019-03-31T03:46:17.362Z,99609.44
2019-03-31T03:49:20.977Z,99610.53
2019-03-31T03:52:24.582Z,99615.61
2019-03-31T03:55:28.236Z,99607.94
2019-03-31T03:58:31.910Z,99616.95
2019-03-31T04:01:35.571Z,99622.39
2019-03-31T04:04:39.336Z,99619.13
2019-03-31T04:07:42.913Z,99626.74
2019-03-31T04:10:49.683Z,99630.90
2019-03-31T04:13:53.306Z,99638.08
2019-03-31T04:16:56.861Z,99643.11
2019-03-31T04:20:00.633Z,99645.04
2019-03-31T04:23:04.239Z,99645.63
2019-03-31T04:26:07.903Z,99648.39
2019-03-31T04:29:11.557Z,99651.58
2019-03-31T04:32:15.193Z,99652.98
2019-03-31T04:35:19.021Z,99651.88
2019-03-31T04:38:22.722Z,99651.97
2019-03-31T04:41:26.400Z,99652.96
2019-03-31T04:44:30.102Z,99655.17
2019-03-31T04:47:33.704Z,99657.80
2019-03-31T04:50:37.422Z,99661.64
2019-03-31T04:53:41.098Z,99672.33
2019-03-31T04:56:44.750Z,99670.43
2019-03-31T04:59:48.577Z,99669.16
2019-03-31T05:02:52.230Z,99670.43
2019-03-31T05:05:55.909Z,99670.43
2019-03-31T05:08:59.620Z,99679.16
2019-03-31T05:12:03.302Z,99687.79
2019-03-31T05:15:07.278Z,99692.51
2019-03-31T05:18:10.992Z,99695.27
2019-03-31T05:21:14.717Z,99699.89
2019-03-31T05:24:18.395Z,99694.75
2019-03-31T05:27:22.142Z,99701.45
2019-03-31T05:30:25.847Z,99708.06
2019-03-31T05:33:29.426Z,99708.38
2019-03-31T05:36:33.089Z,99715.84
2019-03-31T05:39:36.803Z,99707.70
2019-03-31T05:42:40.554Z,99714.48
2019-03-31T05:45:44.272Z,99727.61
2019-03-31T05:48:48.008Z,99724.58
2019-03-31T05:51:51.681Z,99719.95
2019-03-31T05:54:55.406Z,99717.05
2019-03-31T05:57:59.153Z,99707.92
2019-03-31T06:01:02.944Z,99717.58
2019-03-31T06:04:06.748Z,99718.73
2019-03-31T06:07:10.578Z,99726.03
2019-03-31T06:10:15.038Z,99722.22
2019-03-31T06:13:18.711Z,99729.44
2019-03-31T06:16:22.342Z,99725.73
2019-03-31T06:19:25.961Z,99726.64
2019-03-31T06:22:29.803Z,99731.32
2019-03-31T06:25:33.610Z,99736.63
2019-03-31T06:28:37.712Z,99722.63
2019-03-31T06:31:41.636Z,99731.78
2019-03-31T06:34:47.645Z,99730.28
2019-03-31T06:37:51.248Z,99732.81
2019-03-31T06:40:57.468Z,99746.20
2019-03-31T06:44:01.359Z,99744.33
2019-03-31T06:47:05.394Z,99751.09
2019-03-31T06:50:09.341Z,99749.07
2019-03-31T06:53:13.056Z,99764.28
2019-03-31T06:56:16.942Z,99759.72
2019-03-31T06:59:20.662Z,99756.62
2019-03-31T07:02:24.520Z,99767.13
2019-03-31T07:05:28.360Z,99774.48
2019-03-31T07:08:32.198Z,99778.28
2019-03-31T07:11:36.048Z,99782.88
2019-03-31T07:14:39.910Z,99773.39
2019-03-31T07:17:46.944Z,99784.32
2019-03-31T07:20:51.322Z,99785.80
2019-03-31T07:23:55.386Z,99786.52
2019-03-31T07:27:00.077Z,99782.98
2019-03-31T07:30:07.186Z,99785.95
2019-03-31T07:33:11.453Z,99783.28
2019-03-31T07:36:15.554Z,99785.06
2019-03-31T07:39:19.115Z,99797.47
2019-03-31T07:42:23.206Z,99791.81
2019-03-31T07:45:27.364Z,99797.02
2019-03-31T07:48:31.004Z,99807.22
2019-03-31T07:51:37.420Z,99799.59
2019-03-31T07:54:40.116Z,99805.91
2019-03-31T07:57:43.817Z,99798.88
2019-03-31T08:00:48.275Z,99804.97
2019-03-31T08:03:52.414Z,99804.32
2019-03-31T08:06:56.300Z,99821.79
2019-03-31T08:10:00.451Z,99818.63
2019-03-31T08:13:04.509Z,99831.30
2019-03-31T08:16:08.194Z,99827.55
2019-03-31T08:19:11.976Z,99833.15
2019-03-31T08:22:15.880Z,99835.44
2019-03-31T08:25:21.210Z,99859.05
2019-03-31T08:28:25.918Z,99850.16
2019-03-31T08:31:29.932Z,99865.38
2019-03-31T08:34:33.853Z,99860.28
2019-03-31T08:37:37.736Z,99852.02
2019-03-31T08:40:41.432Z,99865.26
2019-03-31T08:43:45.512Z,99864.62
2019-03-31T08:46:49.391Z,99870.46
2019-03-31T08:49:55.850Z,99867.55
2019-03-31T08:53:03.938Z,99867.05
2019-03-31T08:56:13.974Z,99871.83
2019-03-31T08:59:21.788Z,99876.61
2019-03-31T09:02:38.303Z,99886.27
2019-03-31T09:05:42.219Z,99896.01
2019-03-31T09:08:45.960Z,99909.76
2019-03-31T09:11:49.961Z,99898.56
2019-03-31T09:14:53.901Z,99902.83
2019-03-31T09:17:57.586Z,99897.83
2019-03-31T09:21:01.415Z,99914.75
2019-03-31T09:24:05.504Z,99911.95
2019-03-31T09:27:09.395Z,99917.72
2019-03-31T09:30:13.329Z,99922.22
2019-03-31T09:33:17.006Z,99931.55
2019-03-31T09:36:20.574Z,99921.28
2019-03-31T09:39:24.187Z,99920.46
2019-03-31T09:42:27.834Z,99932.84
2019-03-31T09:45:31.502Z,99939.13
2019-03-31T09:48:35.154Z,99928.77
2019-03-31T09:51:38.789Z,99933.28
2019-03-31T09:54:42.507Z,99940.37
2019-03-31T09:57:46.124Z,99935.02
2019-03-31T10:00:52.314Z,99943.36
2019-03-31T10:04:01.340Z,99938.36
2019-03-31T10:07:08.132Z,99949.63
2019-03-31T10:10:19.260Z,99962.47
2019-03-31T10:13:25.334Z,99966.15
2019-03-31T10:16:32.329Z,99964.05
2019-03-31T10:19:38.100Z,99970.46
2019-03-31T10:23:03.938Z,99974.10
2019-03-31T10:26:09.727Z,99974.10
2019-03-31T10:29:16.104Z,99975.76
2019-03-31T10:32:21.831Z,99966.28
2019-03-31T10:35:27.454Z,99984.17
2019-03-31T10:38:31.455Z,99974.58
2019-03-31T10:41:35.244Z,99974.58
2019-03-31T10:44:38.981Z,99996.89
2019-03-31T10:47:42.842Z,99999.48
2019-03-31T10:50:46.462Z,100001.58
2019-03-31T10:53:50.191Z,100002.65
2019-03-31T10:56:53.916Z,100012.07
2019-03-31T10:59:58.129Z,100005.26
2019-03-31T11:03:02.260Z,100012.45
2019-03-31T11:06:05.948Z,100012.45
2019-03-31T11:09:09.686Z,100012.38
2019-03-31T11:12:13.426Z,100027.83
2019-03-31T11:15:22.033Z,100027.24
2019-03-31T11:18:24.942Z,100030.48
2019-03-31T11:21:33.346Z,100028.87
2019-03-31T11:24:36.576Z,100035.98
2019-03-31T11:27:43.636Z,100039.20
2019-03-31T11:30:45.649Z,100036.72
2019-03-31T11:33:49.382Z,100040.64
2019-03-31T11:36:52.988Z,100059.22
2019-03-31T11:39:57.720Z,100060.38
2019-03-31T11:43:01.321Z,100056.91
2019-03-31T11:46:04.923Z,100066.27
2019-03-31T11:49:08.590Z,100057.92
2019-03-31T11:52:12.199Z,100050.44
2019-03-31T11:55:15.835Z,100062.27
2019-03-31T11:58:19.562Z,100077.16
2019-03-31T12:01:23.538Z,100059.81
2019-03-31T12:04:27.420Z,100070.39
2019-03-31T12:07:45.707Z,100085.47
2019-03-31T12:10:36.790Z,100068.63
2019-03-31T12:13:40.410Z,100077.08
2019-03-31T12:16:44.185Z,100071.67
2019-03-31T12:19:48.937Z,100074.07
2019-03-31T12:22:53.142Z,100071.63
2019-03-31T12:25:57.141Z,100077.78
2019-03-31T12:29:00.796Z,100074.73
2019-03-31T12:32:04.712Z,100079.81
2019-03-31T12:35:08.980Z,100081.16
2019-03-31T12:38:12.669Z,100077.71
2019-03-31T12:41:16.758Z,100096.07
2019-03-31T12:44:20.866Z,100102.53
2019-03-31T12:47:24.804Z,100099.60
2019-03-31T12:50:28.892Z,100094.08
2019-03-31T12:53:32.503Z,100108.72
2019-03-31T12:56:36.656Z,100111.54
2019-03-31T12:59:43.007Z,100117.12
2019-03-31T13:02:46.964Z,100113.78
2019-03-31T13:05:51.103Z,100112.72
2019-03-31T13:08:54.951Z,100119.20
2019-03-31T13:11:59.080Z,100117.73
2019-03-31T13:15:03.000Z,100127.34
2019-03-31T13:18:07.061Z,100130.12
2019-03-31T13:21:11.058Z,100132.93
2019-03-31T13:24:15.134Z,100139.81
2019-03-31T13:27:19.028Z,100147.06
2019-03-31T13:30:22.949Z,100158.16
2019-03-31T13:33:26.644Z,100163.20
2019-03-31T13:36:30.340Z,100173.55
2019-03-31T13:39:34.261Z,100171.39
2019-03-31T13:42:38.245Z,100171.47
2019-03-31T13:45:42.263Z,100182.89
2019-03-31T13:48:46.126Z,100178.98
2019-03-31T13:51:49.893Z,100182.84
2019-03-31T13:54:56.694Z,100198.14
2019-03-31T13:58:02.666Z,100193.02
2019-03-31T14:01:05.951Z,100203.20
2019-03-31T14:04:12.429Z,100204.92
2019-03-31T14:07:16.463Z,100205.61
2019-03-31T14:10:20.384Z,100217.01
2019-03-31T14:13:24.200Z,100223.50
2019-03-31T14:16:29.262Z,100229.20
2019-03-31T14:19:33.245Z,100220.23
2019-03-31T14:22:56.272Z,100223.12
2019-03-31T14:26:00.041Z,100220.42
2019-03-31T14:29:03.765Z,100237.19
2019-03-31T14:32:07.510Z,100233.78
2019-03-31T14:35:11.215Z,100236.78
2019-03-31T14:38:14.906Z,100233.70
2019-03-31T14:41:18.637Z,100239.61
2019-03-31T14:44:22.431Z,100240.88
2019-03-31T14:47:26.070Z,100236.45
2019-03-31T14:50:35.268Z,100242.67
2019-03-31T14:53:38.968Z,100239.80
2019-03-31T14:56:42.704Z,100238.11
2019-03-31T14:59:46.343Z,100252.86
2019-03-31T15:02:50.206Z,100243.19
2019-03-31T15:05:53.856Z,100247.61
2019-03-31T15:08:57.676Z,100241.77
2019-03-31T15:12:01.363Z,100252.69
2019-03-31T15:15:06.571Z,100254.16
2019-03-31T15:18:10.947Z,100249.70
2019-03-31T15:21:14.617Z,100257.22
2019-03-31T15:24:19.857Z,100259.88
2019-03-31T15:27:23.913Z,100257.36
2019-03-31T15:30:27.524Z,100254.02
2019-03-31T15:33:31.291Z,100259.69
2019-03-31T15:36:34.922Z,100256.72
2019-03-31T15:39:38.614Z,100264.15
2019-03-31T15:42:42.817Z,100273.31
2019-03-31T15:45:46.392Z,100275.08
2019-03-31T15:48:50.293Z,100277.14
2019-03-31T15:51:54.012Z,100284.03
2019-03-31T15:54:57.936Z,100285.60
2019-03-31T15:58:05.193Z,100282.27
2019-03-31T16:01:07.308Z,100285.02
2019-03-31T16:04:10.980Z,100287.86
2019-03-31T16:07:14.862Z,100294.54
2019-03-31T16:10:18.662Z,100302.08
2019-03-31T16:13:22.344Z,100302.50
2019-03-31T16:16:25.944Z,100309.11
2019-03-31T16:19:29.832Z,100311.87
2019-03-31T16:22:33.452Z,100318.99
2019-03-31T16:25:38.766Z,100326.09
2019-03-31T16:28:42.776Z,100320.00
2019-03-31T16:31:46.635Z,100330.12
2019-03-31T16:34:50.256Z,100323.66
2019-03-31T16:37:53.917Z,100329.77
2019-03-31T16:40:57.820Z,100331.02
2019-03-31T16:44:01.628Z,100329.80
2019-03-31T16:47:05.269Z,100332.05
2019-03-31T16:50:08.993Z,100343.00
2019-03-31T16:53:12.758Z,100348.72
2019-03-31T16:56:16.401Z,100350.14
2019-03-31T16:59:20.094Z,100353.67
2019-03-31T17:02:23.951Z,100358.55
2019-03-31T17:05:27.782Z,100369.11
2019-03-31T17:08:31.510Z,100373.93
2019-03-31T17:11:35.398Z,100379.24
2019-03-31T17:14:39.070Z,100385.38
2019-03-31T17:17:43.038Z,100391.50
2019-03-31T17:20:46.698Z,100395.88
2019-03-31T17:23:51.932Z,100388.09
2019-03-31T17:26:55.589Z,100402.50
2019-03-31T17:29:59.313Z,100407.34
2019-03-31T17:33:02.916Z,100405.64
2019-03-31T17:36:06.658Z,100417.94
2019-03-31T17:39:10.333Z,100415.83
2019-03-31T17:42:14.386Z,100425.88
2019-03-31T17:45:18.100Z,100429.47
2019-03-31T17:48:21.752Z,100438.20
2019-03-31T17:51:25.428Z,100434.31
2019-03-31T17:54:29.039Z,100445.26
2019-03-31T17:57:32.955Z,100436.25
2019-03-31T18:00:36.643Z,100455.94
2019-03-31T18:03:40.454Z,100462.58
2019-03-31T18:06:44.271Z,100478.43
2019-03-31T18:09:47.994Z,100481.64
2019-03-31T18:12:51.776Z,100480.83
2019-03-31T18:15:58.574Z,100492.60
2019-03-31T18:19:09.735Z,100496.19
2019-03-31T18:22:16.564Z,100506.27
2019-03-31T18:25:19.376Z,100509.80
2019-03-31T18:28:23.184Z,100520.33
2019-03-31T18:31:27.634Z,100523.95
2019-03-31T18:34:31.511Z,100535.86
2019-03-31T18:37:35.440Z,100513.02
2019-03-31T18:40:41.218Z,100546.02
2019-03-31T18:43:51.653Z,100553.94
2019-03-31T18:46:50.638Z,100561.03
2019-03-31T18:49:54.396Z,100559.77
2019-03-31T18:52:58.084Z,100563.70
2019-03-31T18:56:09.397Z,100563.75
2019-03-31T18:59:26.757Z,100569.86
2019-03-31T19:02:32.015Z,100565.09
2019-03-31T19:05:54.172Z,100571.19
2019-03-31T19:09:02.588Z,100570.77
2019-03-31T19:12:07.929Z,100575.56
2019-03-31T19:15:16.116Z,100570.00
2019-03-31T19:18:38.016Z,100572.16
2019-03-31T19:21:48.478Z,100577.39
2019-03-31T19:25:10.566Z,100575.31
2019-03-31T19:28:28.592Z,100581.83
2019-03-31T19:31:44.110Z,100586.67
2019-03-31T19:35:09.396Z,100586.68
2019-03-31T19:38:14.825Z,100586.33
2019-03-31T19:41:35.405Z,100588.67
2019-03-31T19:44:40.699Z,100593.12
2019-03-31T19:47:46.046Z,100601.40
2019-03-31T19:50:54.020Z,100599.70
2019-03-31T19:54:02.600Z,100607.97
2019-03-31T19:57:19.938Z,100601.05
2019-03-31T20:00:40.380Z,100602.84
2019-03-31T20:04:00.934Z,100603.78
2019-03-31T20:07:12.172Z,100604.23
2019-03-31T20:10:17.491Z,100602.98
2019-03-31T20:13:25.457Z,100609.50
2019-03-31T20:16:47.510Z,100611.67
2019-03-31T20:19:55.609Z,100609.05
2019-03-31T20:23:06.749Z,100616.87
2019-03-31T20:26:21.060Z,100612.97
2019-03-31T20:29:29.463Z,100626.41
2019-03-31T20:32:34.751Z,100626.39
2019-03-31T20:35:55.083Z,100629.87
2019-03-31T20:39:03.198Z,100629.02
2019-03-31T20:42:08.513Z,100641.16
2019-03-31T20:45:12.384Z,100645.89
2019-03-31T20:48:15.982Z,100646.30
2019-03-31T20:51:19.676Z,100651.45
2019-03-31T20:54:23.310Z,100653.19
2019-03-31T20:57:27.088Z,100656.70
2019-03-31T21:00:30.872Z,100656.70
2019-03-31T21:03:34.522Z,100670.14
2019-03-31T21:06:38.440Z,100661.91
2019-03-31T21:09:45.025Z,100674.89
2019-03-31T21:12:47.732Z,100673.59
2019-03-31T21:15:51.437Z,100678.28
2019-03-31T21:18:55.175Z,100658.27
2019-03-31T21:21:58.947Z,100680.84
2019-03-31T21:25:03.135Z,100676.42
2019-03-31T21:28:06.992Z,100680.73
2019-03-31T21:31:11.266Z,100678.98
2019-03-31T21:34:15.172Z,100687.67
2019-03-31T21:37:18.781Z,100687.64
2019-03-31T21:40:22.430Z,100695.36
2019-03-31T21:43:26.097Z,100695.69
2019-03-31T21:46:29.690Z,100701.36
2019-03-31T21:49:33.455Z,100702.21
2019-03-31T21:52:37.058Z,100709.16
2019-03-31T21:55:40.722Z,100708.30
2019-03-31T21:58:44.618Z,100714.81
2019-03-31T22:01:48.238Z,100720.08
2019-03-31T22:04:51.988Z,100718.75
2019-03-31T22:07:55.952Z,100720.43
2019-03-31T22:10:59.864Z,100722.59
2019-03-31T22:14:04.772Z,100723.00
2019-03-31T22:17:08.464Z,100731.64
2019-03-31T22:20:12.102Z,100739.86
2019-03-31T22:23:15.744Z,100740.34
2019-03-31T22:26:19.989Z,100746.47
2019-03-31T22:29:23.941Z,100732.63
2019-03-31T22:32:27.678Z,100743.09
2019-03-31T22:35:31.560Z,100743.98
2019-03-31T22:38:35.313Z,100741.34
2019-03-31T22:41:39.060Z,100750.78
2019-03-31T22:44:42.762Z,100747.33
2019-03-31T22:47:46.644Z,100745.60
2019-03-31T22:50:50.350Z,100745.16
2019-03-31T22:53:54.066Z,100746.81
2019-03-31T22:56:57.672Z,100744.20
2019-03-31T23:00:01.433Z,100748.97
2019-03-31T23:03:05.046Z,100752.88
2019-03-31T23:06:08.666Z,100755.00
2019-03-31T23:09:12.305Z,100755.41
2019-03-31T23:12:16.038Z,100748.49
2019-03-31T23:15:19.702Z,100742.85
2019-03-31T23:18:23.294Z,100737.60
2019-03-31T23:21:27.034Z,100738.40
2019-03-31T23:24:30.660Z,100739.27
2019-03-31T23:27:34.385Z,100739.27
2019-03-31T23:30:38.118Z,100742.20
2019-03-31T23:33:41.797Z,100751.21
2019-03-31T23:36:45.451Z,100750.28
2019-03-31T23:39:49.220Z,100732.95
2019-03-31T23:42:52.844Z,100756.48
2019-03-31T23:45:56.542Z,100761.16
2019-03-31T23:49:00.272Z,100754.58
2019-03-31T23:52:03.906Z,100761.42
2019-03-31T23:55:07.519Z,100766.56
2019-03-31T23:58:11.636Z,100765.66
